createdAt,value
2022-08-07T00:01:43.573Z,23.90
2022-08-07T00:05:04.014Z,24.00
2022-08-07T00:08:26.749Z,23.90
2022-08-07T00:11:55.407Z,23.90
2022-08-07T00:15:18.570Z,23.90
2022-08-07T00:18:40.941Z,24.00
2022-08-07T00:22:03.800Z,24.30
2022-08-07T00:25:26.661Z,24.30
2022-08-07T00:28:55.338Z,24.30
2022-08-07T00:32:19.065Z,24.30
2022-08-07T00:35:50.550Z,24.20
2022-08-07T00:39:17.110Z,22.50
2022-08-07T00:42:42.667Z,20.90
2022-08-07T00:46:05.146Z,20.70
2022-08-07T00:50:19.693Z,20.50
2022-08-07T00:53:13.045Z,20.80
2022-08-07T00:56:35.843Z,21.10
2022-08-07T00:59:57.942Z,20.60
2022-08-07T01:03:25.431Z,20.40
2022-08-07T01:07:02.231Z,20.40
2022-08-07T01:10:28.305Z,20.50
2022-08-07T01:14:15.549Z,20.70
2022-08-07T01:17:40.181Z,20.50
2022-08-07T01:21:25.829Z,20.40
2022-08-07T01:24:52.147Z,20.60
2022-08-07T01:28:14.765Z,20.40
2022-08-07T01:31:42.429Z,20.40
2022-08-07T01:35:10.101Z,20.60
2022-08-07T01:38:39.715Z,20.60
2022-08-07T01:42:39.738Z,20.50
2022-08-07T01:45:59.567Z,20.60
2022-08-07T01:49:23.359Z,20.50
2022-08-07T01:52:49.698Z,20.50
2022-08-07T01:56:23.163Z,20.50
2022-08-07T02:00:13.422Z,20.40
2022-08-07T02:03:50.333Z,20.40
2022-08-07T02:07:17.168Z,20.40
2022-08-07T02:10:42.282Z,20.50
2022-08-07T02:14:08.336Z,20.40
2022-08-07T02:17:34.202Z,20.30
2022-08-07T02:20:59.186Z,20.30
2022-08-07T02:24:30.367Z,20.40
2022-08-07T02:27:56.937Z,20.30
2022-08-07T02:31:28.838Z,20.20
2022-08-07T02:34:53.639Z,20.10
2022-08-07T02:38:28.136Z,20.00
2022-08-07T02:41:56.513Z,19.90
2022-08-07T02:45:59.001Z,20.00
2022-08-07T02:49:05.808Z,20.00
2022-08-07T02:52:52.127Z,19.90
2022-08-07T02:56:21.664Z,19.90
2022-08-07T03:00:00.796Z,19.80
2022-08-07T03:03:42.123Z,19.90
2022-08-07T03:07:17.313Z,19.80
2022-08-07T03:10:47.253Z,19.70
2022-08-07T03:14:15.588Z,19.80
2022-08-07T03:17:53.955Z,19.80
2022-08-07T03:21:20.789Z,20.00
2022-08-07T03:24:45.636Z,20.10
2022-08-07T03:28:37.260Z,20.10
2022-08-07T03:32:00.326Z,20.00
2022-08-07T03:35:26.127Z,20.00
2022-08-07T03:38:50.498Z,20.00
2022-08-07T03:42:13.219Z,19.90
2022-08-07T03:45:39.553Z,19.90
2022-08-07T03:49:09.850Z,19.90
2022-08-07T03:52:37.586Z,20.10
2022-08-07T03:56:05.296Z,20.20
2022-08-07T03:59:32.536Z,20.10
2022-08-07T04:02:56.623Z,20.10
2022-08-07T04:06:37.615Z,20.10
2022-08-07T04:10:07.603Z,20.20
2022-08-07T04:14:09.410Z,20.30
2022-08-07T04:17:22.392Z,20.40
2022-08-07T04:20:54.823Z,20.60
2022-08-07T04:24:33.669Z,20.70
2022-08-07T04:28:02.060Z,20.60
2022-08-07T04:31:39.225Z,20.30
2022-08-07T11:01:11.649Z,27.60
2022-08-07T11:05:03.172Z,29.00
2022-08-07T11:08:39.043Z,29.60
2022-08-07T11:12:32.159Z,30.00
2022-08-07T11:15:59.924Z,30.00
2022-08-07T11:19:59.264Z,30.20
2022-08-07T11:23:54.720Z,30.00
2022-08-07T11:28:02.476Z,29.90
2022-08-07T11:32:27.829Z,30.70
2022-08-07T11:36:25.413Z,31.50
2022-08-07T11:40:28.577Z,32.00
2022-08-07T11:44:31.614Z,32.20
2022-08-07T11:48:18.096Z,32.00
2022-08-07T11:52:35.779Z,31.50
2022-08-07T11:56:35.780Z,31.40
2022-08-07T12:00:18.732Z,31.70
2022-08-07T12:04:03.020Z,31.40
2022-08-07T12:07:38.997Z,31.20
2022-08-07T12:11:21.767Z,31.10
2022-08-07T12:15:04.712Z,31.20
2022-08-07T12:18:46.218Z,31.10
2022-08-07T12:22:37.701Z,31.20
2022-08-07T12:26:44.843Z,31.20
2022-08-07T12:30:16.982Z,31.30
2022-08-07T12:34:00.858Z,31.50
2022-08-07T12:38:09.784Z,31.20
2022-08-07T12:41:13.876Z,30.40
2022-08-07T12:44:42.861Z,30.50
2022-08-07T12:48:52.243Z,30.60
2022-08-07T12:52:46.324Z,30.80
2022-08-07T12:56:51.253Z,31.20
2022-08-07T13:00:31.319Z,31.10
2022-08-07T13:04:49.200Z,31.00
2022-08-07T13:08:38.878Z,31.00
2022-08-07T13:12:41.114Z,30.90
2022-08-07T13:20:54.017Z,30.40
2022-08-07T13:24:34.046Z,30.30
2022-08-07T13:28:13.566Z,30.30
2022-08-07T13:32:31.920Z,30.60
2022-08-07T13:36:00.644Z,30.70
2022-08-07T13:40:34.123Z,30.70
2022-08-07T13:43:23.595Z,30.60
2022-08-07T13:46:56.384Z,30.50
2022-08-07T13:50:33.526Z,30.70
2022-08-07T13:54:22.652Z,30.70
2022-08-07T13:58:01.657Z,30.50
2022-08-07T14:02:12.876Z,30.60
2022-08-07T14:05:49.403Z,30.70
2022-08-07T14:10:17.490Z,30.70
2022-08-07T14:13:33.395Z,30.60
2022-08-07T14:17:32.426Z,30.10
2022-08-07T14:20:54.531Z,30.20
2022-08-07T14:24:36.462Z,30.40
2022-08-07T14:28:16.761Z,30.80
2022-08-07T14:31:56.219Z,30.90
2022-08-07T14:35:45.607Z,31.00
2022-08-07T14:43:59.116Z,30.70
2022-08-07T14:47:14.151Z,30.60
2022-08-07T14:50:55.548Z,30.50
2022-08-07T14:54:41.994Z,30.30
2022-08-07T14:58:26.023Z,30.40
2022-08-07T15:01:51.038Z,30.60
2022-08-07T15:05:23.772Z,30.60
2022-08-07T15:08:54.984Z,30.30
2022-08-07T15:12:42.145Z,30.40
2022-08-07T15:16:11.177Z,30.50
2022-08-07T15:25:14.459Z,30.40
2022-08-07T15:32:01.876Z,30.30
2022-08-07T15:39:57.761Z,30.40
2022-08-07T15:43:53.314Z,30.50
2022-08-07T15:47:16.472Z,30.50
2022-08-07T15:51:08.574Z,30.40
2022-08-07T15:54:48.325Z,30.30
2022-08-07T15:58:21.253Z,30.40
2022-08-07T16:02:02.548Z,30.30
2022-08-07T16:05:31.350Z,30.40
2022-08-07T16:09:07.702Z,30.10
2022-08-07T16:13:17.441Z,29.90
2022-08-07T16:18:02.526Z,29.80
2022-08-07T16:22:07.867Z,29.30
2022-08-07T16:26:07.084Z,28.90
2022-08-07T16:30:40.552Z,28.60
2022-08-07T16:34:10.422Z,28.50
2022-08-07T16:38:44.372Z,28.80
2022-08-07T16:43:03.027Z,29.10
2022-08-07T16:47:05.523Z,29.20
2022-08-07T16:51:57.827Z,29.20
2022-08-07T16:55:46.970Z,29.10
2022-08-07T16:59:56.286Z,29.00
2022-08-07T17:04:03.251Z,28.70
2022-08-07T17:08:13.733Z,28.50
2022-08-07T17:12:45.309Z,28.70
2022-08-07T17:16:39.971Z,28.80
2022-08-07T17:20:29.923Z,29.20
2022-08-07T17:24:33.579Z,29.00
2022-08-07T17:28:25.481Z,28.60
2022-08-07T17:32:30.919Z,28.30
2022-08-07T17:36:03.685Z,28.00
2022-08-07T17:40:05.490Z,27.70
2022-08-07T17:44:01.674Z,27.60
2022-08-07T17:47:42.646Z,27.20
2022-08-07T17:51:16.318Z,27.10
2022-08-07T17:54:53.501Z,27.20
2022-08-07T17:58:38.801Z,27.00
2022-08-07T18:02:17.741Z,27.00
2022-08-07T18:06:36.832Z,26.80
2022-08-07T18:10:10.177Z,26.60
2022-08-07T18:13:48.540Z,26.30
2022-08-07T18:18:36.555Z,26.00
2022-08-07T18:21:53.473Z,25.80
2022-08-07T18:25:40.622Z,25.60
2022-08-07T18:30:08.343Z,25.60
2022-08-07T18:33:15.926Z,25.60
2022-08-07T18:37:12.083Z,25.40
2022-08-07T18:40:59.801Z,25.30
2022-08-07T18:45:39.570Z,25.20
2022-08-07T18:50:32.778Z,25.00
2022-08-07T18:53:02.942Z,25.00
2022-08-07T18:56:58.125Z,24.90
2022-08-07T19:01:01.039Z,24.80
2022-08-07T19:04:37.465Z,24.70
2022-08-07T19:08:29.314Z,24.70
2022-08-07T19:12:11.401Z,24.70
2022-08-07T19:16:42.990Z,24.60
2022-08-07T19:20:29.078Z,24.70
2022-08-07T19:23:59.990Z,24.60
2022-08-07T19:28:58.489Z,24.30
2022-08-07T19:31:37.253Z,24.20
2022-08-07T19:35:04.027Z,24.20
2022-08-07T19:38:29.322Z,24.20
2022-08-07T19:42:07.981Z,24.30
2022-08-07T19:46:05.716Z,24.30
2022-08-07T19:49:57.581Z,24.20
2022-08-07T19:54:31.422Z,24.30
2022-08-07T19:58:01.693Z,24.30
2022-08-07T20:00:53.955Z,24.20
2022-08-07T20:04:31.346Z,24.20
2022-08-07T20:08:01.039Z,24.10
2022-08-07T20:12:01.115Z,23.90
2022-08-07T20:15:18.928Z,23.90
2022-08-07T20:18:45.941Z,23.90
2022-08-07T20:22:12.531Z,23.70
2022-08-07T20:25:40.269Z,23.90
2022-08-07T20:29:49.098Z,23.80
2022-08-07T20:33:01.364Z,23.60
2022-08-07T20:36:27.274Z,23.40
2022-08-07T20:40:02.200Z,23.20
2022-08-07T20:43:34.111Z,23.20
2022-08-07T20:47:04.203Z,23.10
2022-08-07T20:50:30.594Z,23.10
2022-08-07T20:54:03.086Z,23.00
2022-08-07T20:57:47.344Z,22.90
2022-08-07T21:01:23.278Z,22.80
2022-08-07T21:04:46.774Z,22.80
2022-08-07T21:08:15.447Z,22.70
2022-08-07T21:11:50.541Z,22.60
2022-08-07T21:15:18.700Z,22.60
2022-08-07T21:18:45.956Z,22.60
2022-08-07T21:22:10.234Z,22.50
2022-08-07T21:26:20.493Z,22.50
2022-08-07T21:29:53.322Z,22.40
2022-08-07T21:33:22.491Z,22.40
2022-08-07T21:37:04.276Z,22.40
2022-08-07T21:40:47.964Z,22.30
2022-08-07T21:44:51.090Z,22.30
2022-08-07T21:48:42.539Z,22.30
2022-08-07T21:52:16.698Z,22.30
2022-08-07T21:56:42.393Z,22.30
2022-08-07T22:00:22.122Z,22.20
2022-08-07T22:04:00.669Z,22.30
2022-08-07T22:07:35.590Z,22.30
2022-08-07T22:11:17.666Z,22.30
2022-08-07T22:14:59.497Z,22.30
2022-08-07T22:18:28.618Z,22.40
2022-08-07T22:22:21.253Z,22.40
2022-08-07T22:26:12.353Z,22.40
2022-08-07T22:29:47.983Z,22.50
2022-08-07T22:33:15.080Z,22.60
2022-08-07T22:37:09.350Z,22.60
2022-08-07T22:40:54.615Z,22.70
2022-08-07T22:44:19.293Z,22.90
2022-08-07T22:48:01.076Z,22.90
2022-08-07T22:51:49.168Z,22.80
2022-08-07T22:55:22.704Z,22.70
2022-08-07T22:59:09.760Z,22.70
2022-08-07T23:02:52.246Z,22.60
2022-08-07T23:06:37.070Z,22.50
2022-08-07T23:10:35.450Z,22.50
2022-08-07T23:14:30.672Z,22.50
2022-08-07T23:18:02.208Z,22.50
2022-08-07T23:21:30.260Z,22.40
2022-08-07T23:25:28.584Z,22.30
2022-08-07T23:29:43.511Z,22.30
2022-08-07T23:34:23.385Z,22.20
2022-08-07T23:38:00.331Z,22.10
2022-08-07T23:41:47.520Z,22.00
2022-08-07T23:46:01.913Z,21.90
2022-08-07T23:49:50.055Z,21.90
2022-08-07T23:53:50.891Z,21.80
2022-08-07T23:57:19.225Z,21.80
